createdAt,value
2017-08-21T00:00:46.692Z,8.43
2017-08-21T00:03:14.939Z,6.60
2017-08-21T00:05:43.167Z,12.80
2017-08-21T00:08:10.848Z,6.23
2017-08-21T00:10:39.067Z,8.43
2017-08-21T00:13:06.529Z,6.60
2017-08-21T00:15:34.084Z,6.47
2017-08-21T00:18:02.348Z,8.87
2017-08-21T00:20:31.136Z,14.47
2017-08-21T00:22:58.605Z,5.23
2017-08-21T00:25:26.064Z,5.83
2017-08-21T00:27:53.517Z,7.07
2017-08-21T00:30:21.091Z,6.63
2017-08-21T00:32:49.316Z,8.40
2017-08-21T00:35:16.791Z,6.80
2017-08-21T00:37:45.039Z,6.00
2017-08-21T00:40:12.592Z,9.13
2017-08-21T00:42:40.856Z,9.70
2017-08-21T00:45:09.119Z,5.50
2017-08-21T00:47:37.488Z,7.80
2017-08-21T00:50:05.713Z,7.70
2017-08-21T00:52:33.179Z,5.93
2017-08-21T00:55:01.407Z,7.13
2017-08-21T00:57:28.985Z,8.30
2017-08-21T00:59:57.243Z,9.00
2017-08-21T01:02:25.499Z,9.43
2017-08-21T01:04:53.043Z,9.90
2017-08-21T01:07:20.592Z,11.87
2017-08-21T01:09:48.051Z,16.83
2017-08-21T01:12:15.575Z,9.80
2017-08-21T01:14:43.042Z,7.20
2017-08-21T01:17:11.283Z,6.40
2017-08-21T01:19:39.536Z,8.50
2017-08-21T01:22:07.088Z,9.27
2017-08-21T01:24:35.348Z,7.40
2017-08-21T01:27:03.708Z,8.73
2017-08-21T01:29:31.967Z,5.77
2017-08-21T01:32:00.231Z,9.30
2017-08-21T01:34:28.477Z,13.30
2017-08-21T01:36:56.040Z,14.53
2017-08-21T01:39:24.264Z,7.27
2017-08-21T01:41:51.840Z,8.00
2017-08-21T01:44:20.072Z,7.50
2017-08-21T01:46:47.544Z,9.43
2017-08-21T01:49:15.774Z,10.15
2017-08-21T01:51:43.255Z,8.38
2017-08-21T01:54:10.788Z,15.77
2017-08-21T01:56:39.047Z,8.15
2017-08-21T01:59:07.287Z,14.70
2017-08-21T02:01:34.848Z,16.33
2017-08-21T02:04:03.089Z,9.38
2017-08-21T02:06:30.551Z,6.30
2017-08-21T02:08:58.915Z,8.40
2017-08-21T02:11:27.176Z,14.40
2017-08-21T02:13:55.431Z,16.20
2017-08-21T02:16:22.956Z,21.93
2017-08-21T02:18:51.324Z,13.30
2017-08-21T02:21:19.587Z,12.27
2017-08-21T02:23:47.845Z,15.80
2017-08-21T02:26:16.076Z,12.32
2017-08-21T02:28:43.639Z,8.13
2017-08-21T02:31:11.914Z,11.77
2017-08-21T02:33:39.383Z,11.65
2017-08-21T02:36:06.879Z,10.23
2017-08-21T02:38:45.236Z,12.23
2017-08-21T02:41:12.828Z,10.70
2017-08-21T02:43:40.372Z,10.30
2017-08-21T02:46:08.632Z,8.18
2017-08-21T02:48:36.996Z,9.00
2017-08-21T02:51:05.256Z,12.70
2017-08-21T02:53:33.511Z,12.88
2017-08-21T02:56:01.782Z,17.05
2017-08-21T02:58:30.120Z,14.02
2017-08-21T03:00:57.596Z,9.60
2017-08-21T03:03:25.323Z,7.85
2017-08-21T03:05:53.589Z,11.88
2017-08-21T03:08:22.345Z,13.43
2017-08-21T03:10:50.009Z,9.82
2017-08-21T03:13:17.547Z,10.30
2017-08-21T03:15:45.016Z,8.85
2017-08-21T03:18:12.500Z,12.18
2017-08-21T03:20:40.063Z,13.15
2017-08-21T03:23:08.324Z,9.75
2017-08-21T03:25:36.683Z,11.73
2017-08-21T03:28:04.916Z,8.55
2017-08-21T03:30:32.381Z,10.55
2017-08-21T03:33:00.647Z,12.57
2017-08-21T03:35:28.915Z,12.27
2017-08-21T03:37:57.168Z,9.52
2017-08-21T03:40:25.423Z,15.02
2017-08-21T03:42:52.974Z,9.23
2017-08-21T03:45:21.200Z,11.93
2017-08-21T03:47:48.776Z,10.60
2017-08-21T03:50:17.029Z,12.75
2017-08-21T03:52:45.300Z,12.82
2017-08-21T03:55:13.561Z,11.68
2017-08-21T03:57:41.820Z,12.40
2017-08-21T04:00:10.079Z,12.23
2017-08-21T04:02:38.336Z,10.45
2017-08-21T04:05:06.595Z,12.65
2017-08-21T04:07:34.857Z,15.18
2017-08-21T04:10:03.120Z,12.52
2017-08-21T04:12:31.379Z,15.07
2017-08-21T04:14:59.640Z,20.08
2017-08-21T04:17:27.880Z,17.30
2017-08-21T04:19:55.443Z,12.85
2017-08-21T04:22:23.907Z,13.65
2017-08-21T04:24:52.139Z,19.42
2017-08-21T04:27:19.619Z,21.90
2017-08-21T04:29:47.174Z,14.05
2017-08-21T04:32:14.699Z,11.77
2017-08-21T04:34:42.956Z,14.30
2017-08-21T04:37:11.313Z,19.42
2017-08-21T04:39:39.584Z,13.60
2017-08-21T04:42:07.816Z,17.37
2017-08-21T04:44:35.440Z,14.85
2017-08-21T04:47:02.928Z,17.00
2017-08-21T04:49:31.160Z,21.62
2017-08-21T04:51:58.732Z,16.23
2017-08-21T04:54:26.968Z,18.52
2017-08-21T04:56:54.539Z,24.83
2017-08-21T04:59:23.000Z,17.83
2017-08-21T05:01:50.464Z,15.57
2017-08-21T05:04:17.939Z,14.70
2017-08-21T05:06:45.633Z,22.23
2017-08-21T05:09:13.859Z,12.73
2017-08-21T05:11:41.327Z,16.50
2017-08-21T05:14:09.051Z,18.37
2017-08-21T05:16:36.624Z,16.77
2017-08-21T05:19:04.851Z,19.23
2017-08-21T05:21:32.433Z,18.25
2017-08-21T05:24:00.684Z,17.08
2017-08-21T05:26:28.947Z,14.30
2017-08-21T05:28:57.207Z,14.27
2017-08-21T05:31:25.468Z,19.93
2017-08-21T05:33:53.723Z,16.75
2017-08-21T05:36:21.275Z,18.65
2017-08-21T05:38:49.512Z,14.20
2017-08-21T05:41:17.071Z,16.25
2017-08-21T05:43:45.404Z,19.37
2017-08-21T05:46:12.876Z,15.43
2017-08-21T05:48:41.108Z,19.70
2017-08-21T05:51:08.608Z,19.02
2017-08-21T05:53:36.131Z,18.98
2017-08-21T05:56:03.664Z,14.90
2017-08-21T05:58:32.127Z,19.58
2017-08-21T06:01:00.387Z,14.82
2017-08-21T06:03:28.660Z,22.25
2017-08-21T06:05:56.915Z,12.00
2017-08-21T06:08:25.152Z,19.10
2017-08-21T06:10:52.648Z,17.70
2017-08-21T06:13:20.155Z,16.63
2017-08-21T06:15:48.415Z,15.90
2017-08-21T06:18:16.667Z,18.55
2017-08-21T06:20:44.944Z,17.93
2017-08-21T06:23:13.171Z,15.93
2017-08-21T06:25:40.798Z,24.23
2017-08-21T06:28:08.291Z,17.07
2017-08-21T06:30:35.832Z,19.92
2017-08-21T06:33:04.087Z,18.80
2017-08-21T06:35:31.633Z,16.27
2017-08-21T06:37:59.859Z,17.40
2017-08-21T06:40:27.338Z,22.87
2017-08-21T06:42:55.591Z,16.93
2017-08-21T06:45:23.828Z,17.50
2017-08-21T06:47:51.484Z,14.87
2017-08-21T06:50:18.947Z,19.23
2017-08-21T06:52:47.203Z,15.20
2017-08-21T06:55:15.683Z,16.10
2017-08-21T06:57:43.144Z,14.17
2017-08-21T07:00:10.652Z,18.00
2017-08-21T07:02:38.890Z,13.97
2017-08-21T07:05:06.457Z,16.70
2017-08-21T07:07:34.711Z,17.73
2017-08-21T07:10:02.940Z,16.07
2017-08-21T07:12:30.405Z,16.43
2017-08-21T07:14:58.820Z,18.27
2017-08-21T07:17:26.326Z,15.40
2017-08-21T07:19:53.864Z,18.70
2017-08-21T07:22:22.132Z,18.73
2017-08-21T07:24:50.390Z,18.57
2017-08-21T07:27:18.648Z,15.07
2017-08-21T07:29:46.962Z,15.07
2017-08-21T07:32:14.452Z,16.80
2017-08-21T07:34:42.718Z,14.83
2017-08-21T07:37:10.935Z,13.70
2017-08-21T07:39:38.411Z,11.37
2017-08-21T07:42:06.772Z,21.10
2017-08-21T07:44:35.001Z,18.37
2017-08-21T07:47:02.474Z,18.73
2017-08-21T07:49:30.711Z,12.50
2017-08-21T07:51:58.184Z,14.60
2017-08-21T07:54:26.447Z,12.20
2017-08-21T07:56:53.975Z,10.30
2017-08-21T07:59:22.236Z,13.80
2017-08-21T08:01:50.463Z,10.93
2017-08-21T08:04:18.037Z,9.97
2017-08-21T08:06:46.298Z,12.07
2017-08-21T08:09:14.563Z,9.90
2017-08-21T08:11:42.823Z,8.67
2017-08-21T08:14:11.083Z,9.07
2017-08-21T08:16:39.340Z,9.00
2017-08-21T08:19:07.589Z,12.90
2017-08-21T08:21:35.044Z,12.17
2017-08-21T08:24:03.304Z,10.70
2017-08-21T08:26:31.556Z,10.40
2017-08-21T08:28:59.825Z,9.33
2017-08-21T08:31:28.084Z,22.67
2017-08-21T08:33:56.444Z,10.13
2017-08-21T08:36:23.904Z,11.10
2017-08-21T08:38:51.372Z,12.87
2017-08-21T08:41:18.847Z,10.40
2017-08-21T08:43:46.311Z,18.00
2017-08-21T08:46:14.540Z,10.47
2017-08-21T08:48:42.008Z,9.80
2017-08-21T08:51:09.463Z,10.53
2017-08-21T08:53:37.204Z,9.23
2017-08-21T08:56:05.459Z,8.00
2017-08-21T08:58:33.688Z,8.37
2017-08-21T09:01:01.370Z,8.90
2017-08-21T09:03:28.830Z,13.23
2017-08-21T09:05:56.287Z,5.03
2017-08-21T09:08:24.000Z,10.70
2017-08-21T09:10:52.239Z,21.40
2017-08-21T09:13:19.696Z,8.70
2017-08-21T09:15:47.306Z,7.23
2017-08-21T09:18:14.787Z,8.90
2017-08-21T09:20:43.052Z,5.53
2017-08-21T09:23:11.311Z,7.37
2017-08-21T09:25:39.572Z,8.73
2017-08-21T09:28:07.827Z,8.17
2017-08-21T09:30:36.076Z,6.73
2017-08-21T09:33:03.632Z,10.60
2017-08-21T09:35:31.900Z,7.47
2017-08-21T09:38:00.157Z,9.20
2017-08-21T09:40:28.412Z,5.93
2017-08-21T09:42:56.680Z,5.90
2017-08-21T09:45:24.220Z,10.27
2017-08-21T09:47:51.702Z,11.60
2017-08-21T09:50:19.204Z,8.00
2017-08-21T09:52:46.961Z,10.40
2017-08-21T09:55:14.495Z,7.10
2017-08-21T09:57:42.040Z,5.60
2017-08-21T10:00:09.515Z,5.20
2017-08-21T10:03:04.464Z,9.23
2017-08-21T10:05:31.928Z,5.93
2017-08-21T10:07:59.404Z,5.10
2017-08-21T10:10:26.860Z,8.00
2017-08-21T10:12:54.383Z,6.07
2017-08-21T10:15:21.927Z,6.10
2017-08-21T10:17:49.473Z,6.47
2017-08-21T10:20:17.017Z,7.03
2017-08-21T10:22:44.483Z,4.77
2017-08-21T10:25:11.932Z,6.70
2017-08-21T10:27:39.383Z,11.60
2017-08-21T10:30:06.888Z,5.80
2017-08-21T10:32:34.432Z,6.37
2017-08-21T10:35:01.968Z,6.90
2017-08-21T10:37:29.512Z,7.30
2017-08-21T10:39:57.056Z,7.43
2017-08-21T10:42:24.499Z,4.07
2017-08-21T10:44:52.035Z,11.10
2017-08-21T10:47:19.575Z,7.27
2017-08-21T10:49:47.023Z,5.80
2017-08-21T10:52:14.496Z,8.50
2017-08-21T10:54:41.936Z,6.37
2017-08-21T10:57:09.456Z,9.03
2017-08-21T10:59:37.000Z,4.30
2017-08-21T11:02:06.720Z,7.13
2017-08-21T11:04:35.397Z,5.63
2017-08-21T11:07:04.680Z,11.23
2017-08-21T11:09:32.856Z,9.63
2017-08-21T11:12:06.912Z,11.40
2017-08-21T11:14:34.438Z,9.60
2017-08-21T11:17:01.932Z,6.33
2017-08-21T11:19:29.425Z,7.23
2017-08-21T11:21:56.884Z,5.63
2017-08-21T11:24:24.348Z,10.17
2017-08-21T11:26:51.893Z,5.83
2017-08-21T11:29:19.435Z,10.03
2017-08-21T11:31:46.903Z,5.13
2017-08-21T11:34:14.419Z,4.47
2017-08-21T11:36:41.959Z,9.97
2017-08-21T11:39:09.407Z,8.70
2017-08-21T11:41:37.329Z,5.43
2017-08-21T11:44:04.904Z,11.13
2017-08-21T11:46:32.360Z,8.67
2017-08-21T11:48:59.891Z,4.73
2017-08-21T11:51:27.428Z,7.57
2017-08-21T11:53:54.901Z,6.17
2017-08-21T11:56:22.416Z,7.53
2017-08-21T11:58:49.956Z,8.23
2017-08-21T12:01:17.504Z,6.53
2017-08-21T12:03:44.971Z,5.80
2017-08-21T12:06:12.423Z,4.53
2017-08-21T12:08:39.877Z,6.93
2017-08-21T12:11:07.452Z,14.57
2017-08-21T12:13:34.916Z,11.10
2017-08-21T12:16:02.455Z,6.93
2017-08-21T12:18:30.096Z,7.07
2017-08-21T12:20:57.656Z,6.83
2017-08-21T12:23:25.194Z,6.10
2017-08-21T12:25:52.935Z,5.27
2017-08-21T12:28:20.400Z,3.33
2017-08-21T12:30:47.919Z,7.67
2017-08-21T12:33:15.407Z,6.23
2017-08-21T12:35:42.857Z,9.87
2017-08-21T12:38:10.343Z,11.70
2017-08-21T12:40:37.827Z,6.90
2017-08-21T12:43:05.341Z,9.73
2017-08-21T12:45:32.787Z,7.10
2017-08-21T12:48:00.315Z,9.67
2017-08-21T12:50:27.772Z,5.70
2017-08-21T12:52:55.302Z,6.07
2017-08-21T12:55:22.843Z,6.27
2017-08-21T12:57:50.295Z,7.67
2017-08-21T13:00:17.828Z,8.30
2017-08-21T13:02:45.296Z,4.87
2017-08-21T13:05:12.747Z,8.93
2017-08-21T13:07:40.310Z,6.93
2017-08-21T13:10:07.780Z,6.50
2017-08-21T13:12:35.236Z,5.50
2017-08-21T13:15:02.689Z,6.93
2017-08-21T13:17:30.223Z,5.57
2017-08-21T13:19:57.768Z,8.33
2017-08-21T13:22:25.244Z,6.90
2017-08-21T13:24:52.696Z,6.57
2017-08-21T13:27:20.148Z,6.93
2017-08-21T13:29:47.653Z,4.00
2017-08-21T13:32:15.103Z,9.87
2017-08-21T13:34:42.616Z,7.87
2017-08-21T13:37:10.160Z,8.03
2017-08-21T13:39:37.659Z,13.37
2017-08-21T13:42:05.150Z,5.17
2017-08-21T13:44:32.700Z,9.10
2017-08-21T13:47:00.167Z,9.47
2017-08-21T13:49:27.812Z,4.03
2017-08-21T13:51:55.264Z,8.83
2017-08-21T13:54:22.759Z,4.77
2017-08-21T13:56:50.511Z,6.80
2017-08-21T13:59:18.051Z,8.83
2017-08-21T14:01:45.500Z,6.27
2017-08-21T14:04:13.239Z,5.57
2017-08-21T14:06:40.716Z,5.97
2017-08-21T14:09:08.172Z,5.43
2017-08-21T14:11:35.672Z,8.53
2017-08-21T14:14:03.222Z,4.70
2017-08-21T14:16:30.762Z,8.30
2017-08-21T14:18:58.236Z,6.60
2017-08-21T14:21:25.690Z,7.70
2017-08-21T14:23:53.179Z,4.63
2017-08-21T14:26:20.828Z,6.13
2017-08-21T14:28:48.287Z,9.40
2017-08-21T14:31:15.813Z,5.50
2017-08-21T14:33:43.353Z,5.00
2017-08-21T14:36:10.896Z,10.70
2017-08-21T14:38:38.443Z,8.00
2017-08-21T14:41:06.083Z,5.03
2017-08-21T14:43:33.539Z,5.23
2017-08-21T14:46:01.073Z,3.80
2017-08-21T14:48:28.715Z,11.30
2017-08-21T14:50:56.179Z,6.00
2017-08-21T14:53:23.632Z,8.43
2017-08-21T14:55:51.147Z,10.40
2017-08-21T14:58:18.600Z,7.87
2017-08-21T15:00:46.128Z,5.00
2017-08-21T15:03:13.674Z,8.17
2017-08-21T15:05:41.128Z,9.30
2017-08-21T15:08:08.656Z,6.83
2017-08-21T15:10:36.164Z,8.13
2017-08-21T15:13:03.640Z,5.53
2017-08-21T15:15:31.096Z,8.60
2017-08-21T15:17:58.624Z,6.03
2017-08-21T15:20:26.079Z,4.83
2017-08-21T15:22:53.611Z,6.87
2017-08-21T15:25:21.151Z,4.17
2017-08-21T15:27:48.698Z,7.60
2017-08-21T15:30:16.153Z,6.50
2017-08-21T15:32:43.680Z,5.80
2017-08-21T15:35:11.228Z,8.30
2017-08-21T15:37:38.679Z,5.50
2017-08-21T15:40:06.207Z,7.43
2017-08-21T15:42:33.659Z,5.30
2017-08-21T15:45:01.116Z,7.70
2017-08-21T15:47:28.641Z,5.70
2017-08-21T15:49:56.179Z,8.37
2017-08-21T15:52:23.723Z,8.97
2017-08-21T15:54:51.263Z,8.33
2017-08-21T15:57:18.712Z,8.80
2017-08-21T15:59:46.176Z,5.20
2017-08-21T16:02:13.632Z,7.70
2017-08-21T16:04:41.132Z,5.13
2017-08-21T16:07:08.603Z,5.93
2017-08-21T16:09:36.047Z,6.40
2017-08-21T16:12:03.503Z,6.17
2017-08-21T16:14:30.955Z,5.90
2017-08-21T16:16:58.439Z,6.43
2017-08-21T16:19:25.919Z,4.97
2017-08-21T16:21:53.423Z,6.03
2017-08-21T16:24:20.872Z,7.60
2017-08-21T16:26:48.371Z,4.50
2017-08-21T16:29:15.828Z,6.43
2017-08-21T16:31:43.299Z,9.13
2017-08-21T16:34:10.764Z,6.83
2017-08-21T16:36:38.280Z,11.03
2017-08-21T16:39:05.736Z,7.00
2017-08-21T16:41:33.243Z,7.80
2017-08-21T16:44:00.783Z,4.73
2017-08-21T16:46:28.343Z,4.13
2017-08-21T16:48:55.880Z,5.33
2017-08-21T16:51:23.425Z,4.63
2017-08-21T16:53:50.965Z,7.73
2017-08-21T16:56:18.708Z,4.17
2017-08-21T16:58:46.156Z,6.83
2017-08-21T17:01:13.697Z,7.17
2017-08-21T17:03:41.235Z,7.57
2017-08-21T17:06:08.780Z,6.07
2017-08-21T17:08:36.260Z,9.00
2017-08-21T17:11:03.709Z,5.60
2017-08-21T17:13:31.204Z,6.20
2017-08-21T17:15:58.688Z,7.57
2017-08-21T17:18:26.215Z,7.30
2017-08-21T17:20:53.663Z,7.33
2017-08-21T17:23:21.374Z,5.30
2017-08-21T17:25:48.829Z,7.17
2017-08-21T17:28:16.363Z,7.57
2017-08-21T17:30:43.911Z,5.87
2017-08-21T17:33:11.453Z,5.97
2017-08-21T17:35:38.904Z,6.97
2017-08-21T17:38:06.367Z,7.60
2017-08-21T17:40:33.819Z,7.20
2017-08-21T17:43:01.263Z,7.60
2017-08-21T17:45:28.747Z,6.60
2017-08-21T17:47:56.195Z,7.43
2017-08-21T17:50:23.673Z,9.37
2017-08-21T17:52:51.200Z,6.20
2017-08-21T17:55:18.651Z,5.40
2017-08-21T17:57:46.196Z,7.30
2017-08-21T18:00:13.823Z,6.17
2017-08-21T18:02:41.480Z,6.67
2017-08-21T18:05:08.936Z,5.03
2017-08-21T18:07:36.424Z,6.00
2017-08-21T18:10:03.906Z,7.23
2017-08-21T18:12:31.359Z,5.33
2017-08-21T18:14:58.807Z,9.50
2017-08-21T18:17:26.271Z,9.07
2017-08-21T18:19:53.740Z,6.63
2017-08-21T18:22:21.198Z,5.97
2017-08-21T18:24:48.836Z,7.90
2017-08-21T18:27:16.315Z,11.63
2017-08-21T18:29:43.839Z,7.10
2017-08-21T18:32:11.292Z,7.70
2017-08-21T18:34:38.768Z,5.80
2017-08-21T18:37:06.226Z,8.13
2017-08-21T18:39:33.680Z,8.97
2017-08-21T18:42:01.161Z,6.60
2017-08-21T18:44:28.613Z,9.23
2017-08-21T18:46:56.083Z,5.30
2017-08-21T18:49:23.552Z,6.30
2017-08-21T18:51:51.071Z,9.80
2017-08-21T18:54:18.530Z,10.50
2017-08-21T18:56:46.268Z,5.27
2017-08-21T18:59:13.720Z,4.97
2017-08-21T19:01:41.160Z,9.53
2017-08-21T19:04:08.624Z,8.90
2017-08-21T19:06:36.080Z,10.30
2017-08-21T19:09:03.544Z,9.00
2017-08-21T19:11:31.016Z,9.67
2017-08-21T19:13:58.469Z,9.03
2017-08-21T19:16:25.951Z,9.10
2017-08-21T19:18:53.440Z,8.07
2017-08-21T19:21:21.085Z,8.37
2017-08-21T19:23:48.555Z,7.10
2017-08-21T19:26:16.004Z,8.23
2017-08-21T19:28:43.456Z,8.30
2017-08-21T19:31:10.956Z,9.53
2017-08-21T19:33:38.473Z,9.13
2017-08-21T19:36:06.035Z,9.70
2017-08-21T19:38:33.479Z,6.17
2017-08-21T19:41:01.020Z,9.60
2017-08-21T19:43:28.764Z,9.53
2017-08-21T19:45:56.321Z,10.27
2017-08-21T19:48:23.775Z,6.20
2017-08-21T19:50:51.301Z,7.80
2017-08-21T19:53:18.752Z,9.47
2017-08-21T19:55:46.216Z,9.33
2017-08-21T19:58:13.728Z,8.53
2017-08-21T20:00:41.267Z,13.67
2017-08-21T20:03:08.725Z,9.67
2017-08-21T20:05:37.461Z,10.57
2017-08-21T20:08:04.921Z,8.20
2017-08-21T20:10:32.421Z,7.40
2017-08-21T20:12:59.912Z,8.50
2017-08-21T20:15:27.463Z,12.40
2017-08-21T20:17:55.007Z,9.80
2017-08-21T20:20:22.482Z,9.70
2017-08-21T20:22:49.928Z,7.60
2017-08-21T20:25:18.285Z,12.73
2017-08-21T20:27:45.784Z,13.97
2017-08-21T20:30:13.239Z,8.53
2017-08-21T20:32:40.695Z,8.47
2017-08-21T20:35:08.216Z,13.63
2017-08-21T20:37:35.668Z,7.37
2017-08-21T20:40:03.192Z,9.93
2017-08-21T20:42:30.747Z,11.13
2017-08-21T20:44:58.203Z,12.93
2017-08-21T20:47:25.666Z,9.90
2017-08-21T20:49:53.385Z,8.07
2017-08-21T20:52:20.841Z,8.07
2017-08-21T20:54:48.332Z,9.03
2017-08-21T20:57:15.995Z,8.73
2017-08-21T20:59:43.451Z,8.90
2017-08-21T21:02:10.908Z,8.00
2017-08-21T21:04:38.435Z,10.30
2017-08-21T21:07:05.907Z,10.90
2017-08-21T21:09:33.361Z,8.77
2017-08-21T21:12:01.048Z,8.70
2017-08-21T21:14:28.512Z,8.83
2017-08-21T21:16:55.969Z,10.00
2017-08-21T21:19:23.503Z,11.80
2017-08-21T21:21:51.128Z,12.57
2017-08-21T21:24:18.608Z,11.03
2017-08-21T21:26:46.077Z,8.90
2017-08-21T21:29:13.551Z,14.37
2017-08-21T21:31:41.095Z,9.90
2017-08-21T21:34:08.551Z,14.30
2017-08-21T21:36:36.080Z,16.07
2017-08-21T21:39:03.720Z,10.80
2017-08-21T21:41:31.177Z,12.37
2017-08-21T21:43:58.703Z,20.17
2017-08-21T21:46:26.352Z,10.90
2017-08-21T21:48:53.897Z,12.60
2017-08-21T21:51:21.355Z,8.50
2017-08-21T21:53:49.088Z,9.37
2017-08-21T21:56:16.539Z,9.97
2017-08-21T21:58:44.000Z,13.53
2017-08-21T22:01:11.539Z,13.13
2017-08-21T22:03:38.999Z,16.00
2017-08-21T22:06:06.477Z,10.57
2017-08-21T22:08:34.139Z,11.40
2017-08-21T22:11:01.658Z,10.50
2017-08-21T22:13:29.126Z,12.10
2017-08-21T22:15:56.683Z,9.37
2017-08-21T22:18:24.218Z,9.33
2017-08-21T22:20:51.780Z,10.67
2017-08-21T22:23:19.299Z,10.67
2017-08-21T22:25:46.844Z,10.87
2017-08-21T22:28:14.392Z,11.93
2017-08-21T22:30:42.032Z,11.17
2017-08-21T22:33:09.575Z,14.53
2017-08-21T22:35:37.032Z,12.90
2017-08-21T22:38:04.712Z,10.93
2017-08-21T22:40:32.171Z,12.33
2017-08-21T22:42:59.672Z,23.40
2017-08-21T22:45:27.191Z,10.83
2017-08-21T22:47:54.659Z,10.90
2017-08-21T22:50:22.116Z,12.37
2017-08-21T22:52:49.636Z,12.03
2017-08-21T22:55:17.105Z,13.63
2017-08-21T22:57:44.563Z,10.63
2017-08-21T23:00:12.243Z,10.87
2017-08-21T23:02:39.791Z,10.93
2017-08-21T23:05:07.335Z,13.40
2017-08-21T23:07:35.087Z,10.87
2017-08-21T23:10:02.548Z,16.87
2017-08-21T23:12:30.004Z,13.53
2017-08-21T23:14:57.479Z,13.13
2017-08-21T23:17:24.943Z,12.27
2017-08-21T23:19:52.403Z,11.23
2017-08-21T23:22:20.135Z,12.30
2017-08-21T23:24:47.597Z,12.43
2017-08-21T23:27:15.125Z,12.60
2017-08-21T23:29:42.588Z,10.87
2017-08-21T23:32:10.047Z,12.93
2017-08-21T23:34:37.551Z,14.33
2017-08-21T23:37:05.084Z,10.63
2017-08-21T23:39:32.548Z,11.67
2017-08-21T23:42:00.199Z,10.97
2017-08-21T23:44:27.656Z,12.40
2017-08-21T23:46:55.163Z,15.37
2017-08-21T23:49:22.657Z,10.67
2017-08-21T23:51:50.117Z,10.20
2017-08-21T23:54:17.567Z,14.93
2017-08-21T23:56:45.135Z,14.93
2017-08-21T23:59:12.691Z,12.57
